Time;durP1;ratioP1;P1;durP2;ratioP2;P2;SDS_P1;SDS_P2;PMS_P1;PMS_P2;Temp;Humidity;BMP_temperature;BMP_pressure;BME280_temperature;BME280_humidity;BME280_pressure;Samples;Min_cycle;Max_cycle;Signal;HPM_P1;HPM_P2
2022/04/15 00:00:27;;;;;;;15.93;10.07;;;;;;;;;;5038370;28;20492;-47
2022/04/15 00:02:52;;;;;;;13.50;8.65;;;;;;;;;;5049839;28;20465;-49
2022/04/15 00:05:37;;;;;;;15.30;8.45;;;;;;;;;;5035180;28;20037;-50
2022/04/15 00:08:06;;;;;;;11.93;7.72;;;;;;;;;;5031979;28;20082;-47
2022/04/15 00:10:33;;;;;;;11.68;7.85;;;;;;;;;;5031721;28;20037;-53
2022/04/15 00:12:59;;;;;;;14.30;8.82;;;;;;;;;;5040656;28;20025;-47
2022/04/15 00:15:27;;;;;;;13.80;9.20;;;;;;;;;;5032386;28;20029;-47
2022/04/15 00:17:53;;;;;;;17.30;9.82;;;;;;;;;;5045375;28;20087;-47
2022/04/15 00:20:19;;;;;;;14.65;10.05;;;;;;;;;;5031677;28;20029;-48
2022/04/15 00:22:45;;;;;;;16.55;9.32;;;;;;;;;;5033869;28;20017;-49
2022/04/15 00:25:11;;;;;;;15.65;9.38;;;;;;;;;;5038284;28;20021;-49
2022/04/15 00:27:38;;;;;;;16.52;10.48;;;;;;;;;;5051587;28;20064;-47
2022/04/15 00:30:05;;;;;;;18.52;10.50;;;;;;;;;;5031562;28;20056;-47
2022/04/15 00:32:31;;;;;;;17.55;10.48;;;;;;;;;;5031328;28;20030;-46
2022/04/15 00:34:57;;;;;;;18.35;10.35;;;;;;;;;;5031067;28;20029;-47
2022/04/15 00:37:23;;;;;;;16.30;9.90;;;;;;;;;;5031401;28;20036;-47
2022/04/15 00:39:50;;;;;;;15.40;10.63;;;;;;;;;;5041531;28;20025;-47
2022/04/15 00:42:16;;;;;;;18.13;11.52;;;;;;;;;;5041783;28;20076;-50
2022/04/15 00:44:42;;;;;;;18.98;11.10;;;;;;;;;;5045439;28;20031;-49
2022/04/15 00:47:27;;;;;;;18.95;10.40;;;;;;;;;;5053102;28;20389;-47
2022/04/15 00:49:53;;;;;;;16.60;10.05;;;;;;;;;;5044987;28;20125;-51
2022/04/15 00:52:21;;;;;;;18.10;9.77;;;;;;;;;;5050880;28;20500;-46
2022/04/15 00:54:49;;;;;;;14.75;9.13;;;;;;;;;;5053568;28;20066;-48
2022/04/15 00:57:16;;;;;;;13.80;9.00;;;;;;;;;;5034930;28;20033;-48
2022/04/15 00:59:43;;;;;;;13.80;8.15;;;;;;;;;;5034967;28;20485;-47
2022/04/15 01:02:10;;;;;;;16.77;8.73;;;;;;;;;;5034286;28;20028;-46
2022/04/15 01:04:36;;;;;;;11.50;7.45;;;;;;;;;;5045404;28;20025;-47
2022/04/15 01:07:05;;;;;;;14.20;8.65;;;;;;;;;;5036277;28;20132;-48
2022/04/15 01:09:36;;;;;;;10.73;7.55;;;;;;;;;;5046147;28;20027;-47
2022/04/15 01:12:04;;;;;;;14.52;7.53;;;;;;;;;;5053919;28;20025;-48
2022/04/15 01:14:31;;;;;;;12.18;7.93;;;;;;;;;;5041468;28;20031;-46
2022/04/15 01:16:57;;;;;;;13.07;6.78;;;;;;;;;;5040292;28;20059;-48
2022/04/15 01:19:23;;;;;;;11.00;7.03;;;;;;;;;;5047046;28;20083;-51
2022/04/15 01:21:50;;;;;;;12.30;6.95;;;;;;;;;;5036624;28;20417;-49
2022/04/15 01:24:16;;;;;;;12.73;7.40;;;;;;;;;;5041905;28;20029;-49
2022/04/15 01:26:42;;;;;;;11.65;6.05;;;;;;;;;;5047663;28;20025;-52
2022/04/15 01:29:08;;;;;;;10.63;6.68;;;;;;;;;;5034361;28;20026;-47
2022/04/15 01:31:34;;;;;;;11.73;6.95;;;;;;;;;;5033703;28;20481;-47
2022/04/15 01:34:00;;;;;;;9.82;6.30;;;;;;;;;;5033693;28;20099;-47
2022/04/15 01:36:26;;;;;;;16.95;7.35;;;;;;;;;;5053138;28;20032;-48
2022/04/15 01:38:53;;;;;;;16.65;7.65;;;;;;;;;;5054099;28;20025;-46
2022/04/15 01:41:21;;;;;;;13.30;7.93;;;;;;;;;;5053270;28;20036;-46
2022/04/15 01:43:47;;;;;;;12.20;7.45;;;;;;;;;;5054002;28;20036;-46
2022/04/15 01:46:13;;;;;;;10.68;7.35;;;;;;;;;;5036859;28;20691;-48
2022/04/15 01:48:39;;;;;;;15.32;8.52;;;;;;;;;;5033652;28;20040;-46
2022/04/15 01:51:05;;;;;;;14.52;8.23;;;;;;;;;;5031724;28;20037;-48
2022/04/15 01:53:31;;;;;;;13.10;8.57;;;;;;;;;;5034422;28;20030;-47
2022/04/15 01:55:57;;;;;;;14.85;8.95;;;;;;;;;;5046191;28;20498;-51
2022/04/15 01:58:23;;;;;;;15.68;8.57;;;;;;;;;;5033412;28;20041;-50
2022/04/15 02:00:49;;;;;;;14.38;8.80;;;;;;;;;;5033658;28;20104;-48
2022/04/15 02:03:15;;;;;;;14.60;8.68;;;;;;;;;;5033429;28;20021;-47
2022/04/15 02:05:41;;;;;;;14.23;8.38;;;;;;;;;;5033368;28;20044;-51
2022/04/15 02:08:07;;;;;;;12.82;8.88;;;;;;;;;;5046755;28;20032;-49
2022/04/15 02:10:33;;;;;;;13.98;8.85;;;;;;;;;;5031789;28;20033;-47
2022/04/15 02:12:59;;;;;;;15.90;8.27;;;;;;;;;;5042559;28;20045;-47
2022/04/15 02:15:25;;;;;;;19.55;8.88;;;;;;;;;;5039717;28;20037;-50
2022/04/15 02:17:54;;;;;;;13.95;9.07;;;;;;;;;;5051005;28;20533;-48
2022/04/15 02:20:20;;;;;;;20.48;9.25;;;;;;;;;;5052758;28;20036;-48
2022/04/15 02:22:46;;;;;;;12.65;8.68;;;;;;;;;;5051245;28;20059;-49
2022/04/15 02:25:11;;;;;;;13.15;8.68;;;;;;;;;;5033152;28;20056;-47
2022/04/15 02:27:37;;;;;;;13.25;7.95;;;;;;;;;;5046532;28;20032;-48
2022/04/15 02:30:04;;;;;;;13.98;8.65;;;;;;;;;;5044777;28;20030;-49
2022/04/15 02:32:30;;;;;;;16.55;9.10;;;;;;;;;;5042239;28;20033;-47
2022/04/15 02:34:56;;;;;;;13.25;8.90;;;;;;;;;;5039563;28;20025;-47
2022/04/15 02:37:22;;;;;;;16.88;9.75;;;;;;;;;;5052572;28;20484;-47
2022/04/15 02:39:49;;;;;;;20.85;9.40;;;;;;;;;;5045593;28;20082;-47
2022/04/15 02:42:15;;;;;;;12.93;8.63;;;;;;;;;;5040723;28;20021;-47
2022/04/15 02:44:41;;;;;;;12.68;9.05;;;;;;;;;;5049439;28;20519;-48
2022/04/15 02:47:08;;;;;;;15.50;8.18;;;;;;;;;;5034730;28;20025;-50
2022/04/15 02:49:34;;;;;;;14.90;8.77;;;;;;;;;;5033117;28;20200;-51
2022/04/15 02:52:00;;;;;;;15.77;8.52;;;;;;;;;;5032252;28;20097;-47
2022/04/15 02:54:26;;;;;;;13.90;8.88;;;;;;;;;;5032858;28;20022;-49
2022/04/15 02:56:52;;;;;;;14.00;8.10;;;;;;;;;;5032568;28;20557;-47
2022/04/15 02:59:20;;;;;;;13.32;8.23;;;;;;;;;;5032548;28;20095;-47
2022/04/15 03:01:48;;;;;;;12.20;8.18;;;;;;;;;;5031690;28;20067;-47
2022/04/15 03:04:14;;;;;;;13.88;7.93;;;;;;;;;;5039814;28;20018;-51
2022/04/15 03:06:40;;;;;;;11.30;7.70;;;;;;;;;;5036592;28;20216;-48
2022/04/15 03:09:06;;;;;;;13.25;8.27;;;;;;;;;;5039033;28;20051;-48
2022/04/15 03:11:32;;;;;;;16.65;8.32;;;;;;;;;;5035349;28;20021;-47
2022/04/15 03:13:58;;;;;;;16.98;8.70;;;;;;;;;;5041249;28;20481;-47
2022/04/15 03:16:24;;;;;;;13.25;8.27;;;;;;;;;;5036972;28;20087;-46
2022/04/15 03:18:50;;;;;;;13.27;7.68;;;;;;;;;;5042664;28;20029;-47
2022/04/15 03:21:16;;;;;;;13.05;7.43;;;;;;;;;;5032932;28;20033;-47
2022/04/15 03:23:42;;;;;;;14.93;8.00;;;;;;;;;;5042289;28;20025;-47
2022/04/15 03:26:08;;;;;;;13.93;7.93;;;;;;;;;;5032011;28;20021;-49
2022/04/15 03:28:34;;;;;;;13.77;7.85;;;;;;;;;;5040050;28;20108;-49
2022/04/15 03:31:00;;;;;;;11.25;7.13;;;;;;;;;;5036845;28;20025;-48
2022/04/15 03:33:28;;;;;;;12.52;7.45;;;;;;;;;;5040441;28;20458;-47
2022/04/15 03:35:54;;;;;;;11.85;7.53;;;;;;;;;;5045640;28;20128;-47
2022/04/15 03:38:20;;;;;;;11.23;7.55;;;;;;;;;;5044310;28;20053;-52
2022/04/15 03:40:45;;;;;;;11.50;7.50;;;;;;;;;;5038503;28;20057;-51
2022/04/15 03:43:11;;;;;;;11.32;7.55;;;;;;;;;;5051621;28;20389;-47
2022/04/15 03:45:37;;;;;;;13.27;8.20;;;;;;;;;;5040389;28;20099;-47
2022/04/15 03:48:04;;;;;;;14.52;7.78;;;;;;;;;;5043573;28;20021;-49
2022/04/15 03:50:30;;;;;;;14.30;7.82;;;;;;;;;;5033179;28;20057;-48
2022/04/15 03:52:56;;;;;;;13.88;7.85;;;;;;;;;;5051430;28;20496;-47
2022/04/15 03:55:24;;;;;;;11.65;7.75;;;;;;;;;;5036758;28;20025;-46
2022/04/15 03:57:50;;;;;;;15.63;8.63;;;;;;;;;;5040254;28;20055;-46
2022/04/15 04:00:20;;;;;;;14.48;7.72;;;;;;;;;;5051492;28;20021;-46
2022/04/15 04:02:47;;;;;;;13.30;7.75;;;;;;;;;;5042116;28;20025;-49
2022/04/15 04:05:14;;;;;;;11.77;7.65;;;;;;;;;;5034779;28;20052;-48
2022/04/15 04:07:44;;;;;;;13.07;7.95;;;;;;;;;;5051667;28;20029;-47
2022/04/15 04:10:13;;;;;;;12.45;7.82;;;;;;;;;;5034730;28;20030;-49
2022/04/15 04:12:39;;;;;;;14.35;7.93;;;;;;;;;;5037563;28;20028;-48
2022/04/15 04:15:06;;;;;;;11.77;7.45;;;;;;;;;;5055499;28;20082;-51
2022/04/15 04:17:33;;;;;;;9.93;7.03;;;;;;;;;;5053289;28;20025;-48
2022/04/15 04:19:59;;;;;;;14.05;7.47;;;;;;;;;;5055518;28;20800;-47
2022/04/15 04:22:29;;;;;;;12.50;7.43;;;;;;;;;;5046334;28;20474;-47
2022/04/15 04:24:55;;;;;;;9.77;6.93;;;;;;;;;;5043003;28;20083;-47
2022/04/15 04:27:21;;;;;;;12.52;6.95;;;;;;;;;;5037874;28;20125;-46
2022/04/15 04:29:47;;;;;;;11.60;6.90;;;;;;;;;;5049738;28;20041;-46
2022/04/15 04:32:15;;;;;;;10.60;6.18;;;;;;;;;;5040446;28;20029;-46
2022/04/15 04:34:40;;;;;;;11.80;6.75;;;;;;;;;;5040271;28;20021;-48
2022/04/15 04:37:06;;;;;;;9.35;6.47;;;;;;;;;;5054763;28;20480;-48
2022/04/15 04:39:32;;;;;;;10.93;6.93;;;;;;;;;;5049894;28;20025;-48
2022/04/15 04:41:59;;;;;;;10.73;7.07;;;;;;;;;;5034600;28;20030;-49
2022/04/15 04:44:25;;;;;;;10.95;6.57;;;;;;;;;;5050342;28;20377;-48
2022/04/15 04:46:52;;;;;;;10.93;6.43;;;;;;;;;;5039170;28;20029;-46
2022/04/15 04:49:19;;;;;;;12.70;6.97;;;;;;;;;;5035220;28;20029;-49
2022/04/15 04:51:45;;;;;;;8.73;6.03;;;;;;;;;;5046643;28;20108;-50
2022/04/15 04:54:11;;;;;;;12.68;6.43;;;;;;;;;;5035502;28;20021;-47
2022/04/15 04:56:37;;;;;;;8.27;5.95;;;;;;;;;;5034877;28;20033;-47
2022/04/15 04:59:03;;;;;;;11.95;6.65;;;;;;;;;;5034626;28;20096;-47
2022/04/15 05:01:29;;;;;;;11.65;7.05;;;;;;;;;;5047275;28;20461;-47
2022/04/15 05:03:55;;;;;;;12.68;6.75;;;;;;;;;;5038992;28;20057;-47
2022/04/15 05:06:21;;;;;;;10.38;6.43;;;;;;;;;;5034769;28;20036;-47
2022/04/15 05:08:47;;;;;;;12.50;6.88;;;;;;;;;;5048078;28;20025;-47
2022/04/15 05:11:13;;;;;;;9.85;7.03;;;;;;;;;;5034575;28;20083;-48
2022/04/15 05:13:39;;;;;;;10.73;7.53;;;;;;;;;;5047677;28;20030;-47
2022/04/15 05:16:05;;;;;;;12.70;7.55;;;;;;;;;;5034245;28;20037;-50
2022/04/15 05:18:31;;;;;;;12.68;6.97;;;;;;;;;;5053578;28;20104;-51
2022/04/15 05:20:57;;;;;;;13.65;7.47;;;;;;;;;;5053689;28;20423;-51
2022/04/15 05:23:23;;;;;;;13.68;8.27;;;;;;;;;;5049109;28;20044;-51
2022/04/15 05:25:49;;;;;;;10.38;6.70;;;;;;;;;;5033060;28;20044;-50
2022/04/15 05:28:15;;;;;;;13.00;7.90;;;;;;;;;;5039449;28;20459;-49
2022/04/15 05:30:41;;;;;;;14.13;7.60;;;;;;;;;;5042617;28;20014;-47
2022/04/15 05:33:07;;;;;;;15.77;7.72;;;;;;;;;;5034248;28;20040;-47
2022/04/15 05:35:33;;;;;;;14.23;7.82;;;;;;;;;;5044243;28;20362;-47
2022/04/15 05:37:59;;;;;;;14.60;7.35;;;;;;;;;;5033937;28;20036;-49
2022/04/15 05:40:27;;;;;;;13.00;7.85;;;;;;;;;;5034155;28;20026;-49
2022/04/15 05:42:53;;;;;;;10.10;6.35;;;;;;;;;;5042215;28;20049;-47
2022/04/15 05:45:19;;;;;;;10.15;7.38;;;;;;;;;;5043901;28;20104;-47
2022/04/15 05:47:45;;;;;;;13.88;7.70;;;;;;;;;;5032462;28;20070;-47
2022/04/15 05:50:11;;;;;;;11.23;7.07;;;;;;;;;;5033326;28;20030;-47
2022/04/15 05:52:37;;;;;;;9.82;6.63;;;;;;;;;;5033039;28;20076;-47
2022/04/15 05:55:03;;;;;;;10.50;6.30;;;;;;;;;;5033709;28;20389;-48
2022/04/15 05:57:29;;;;;;;11.60;7.20;;;;;;;;;;5039481;28;20036;-50
2022/04/15 05:59:55;;;;;;;14.57;7.35;;;;;;;;;;5040552;28;20040;-48
2022/04/15 06:02:21;;;;;;;10.15;6.40;;;;;;;;;;5047063;28;20026;-48
2022/04/15 06:04:48;;;;;;;10.20;6.20;;;;;;;;;;5033532;28;20028;-48
2022/04/15 06:07:14;;;;;;;9.02;6.50;;;;;;;;;;5033164;28;20040;-49
2022/04/15 06:09:40;;;;;;;11.07;6.30;;;;;;;;;;5033386;28;20450;-48
2022/04/15 06:12:06;;;;;;;12.23;6.30;;;;;;;;;;5035270;28;20393;-48
2022/04/15 06:14:35;;;;;;;10.10;6.18;;;;;;;;;;5040148;28;20017;-48
2022/04/15 06:17:02;;;;;;;12.50;6.70;;;;;;;;;;5045679;28;20021;-48
2022/04/15 06:19:28;;;;;;;13.40;6.22;;;;;;;;;;5044307;28;20025;-50
2022/04/15 06:21:54;;;;;;;10.02;6.30;;;;;;;;;;5034741;28;20021;-48
2022/04/15 06:24:20;;;;;;;10.55;6.13;;;;;;;;;;5040351;28;20022;-50
2022/04/15 06:26:46;;;;;;;9.65;6.18;;;;;;;;;;5032802;28;20048;-51
2022/04/15 06:29:12;;;;;;;7.50;5.35;;;;;;;;;;5046034;28;20029;-48
2022/04/15 06:31:38;;;;;;;8.98;5.43;;;;;;;;;;5032589;28;20591;-52
2022/04/15 06:34:04;;;;;;;9.93;5.80;;;;;;;;;;5032611;28;20721;-49
2022/04/15 06:36:30;;;;;;;10.38;5.30;;;;;;;;;;5052043;28;20691;-50
2022/04/15 06:38:56;;;;;;;8.60;5.40;;;;;;;;;;5039744;28;20025;-50
2022/04/15 06:41:22;;;;;;;8.90;5.00;;;;;;;;;;5032411;28;20022;-48
2022/04/15 06:43:48;;;;;;;9.45;5.32;;;;;;;;;;5031347;28;20450;-49
2022/04/15 06:46:14;;;;;;;10.50;5.50;;;;;;;;;;5037268;28;20029;-50
2022/04/15 06:48:40;;;;;;;9.57;5.53;;;;;;;;;;5045785;28;20055;-49
2022/04/15 06:51:06;;;;;;;11.93;5.25;;;;;;;;;;5051583;28;20481;-48
2022/04/15 06:53:32;;;;;;;8.05;5.25;;;;;;;;;;5052451;28;20052;-49
2022/04/15 06:55:58;;;;;;;8.02;4.55;;;;;;;;;;5033023;28;20030;-48
2022/04/15 06:58:24;;;;;;;7.25;5.03;;;;;;;;;;5032479;28;20065;-52
2022/04/15 07:00:51;;;;;;;7.70;5.10;;;;;;;;;;5051565;28;20453;-49
2022/04/15 07:03:17;;;;;;;9.02;5.43;;;;;;;;;;5039118;28;20026;-48
2022/04/15 07:05:44;;;;;;;9.13;4.95;;;;;;;;;;5038051;28;20036;-47
2022/04/15 07:08:11;;;;;;;8.10;5.22;;;;;;;;;;5038715;28;20036;-49
2022/04/15 07:10:40;;;;;;;7.00;4.45;;;;;;;;;;5032187;28;20043;-49
2022/04/15 07:13:06;;;;;;;8.63;5.22;;;;;;;;;;5041540;28;20029;-48
2022/04/15 07:15:32;;;;;;;10.38;5.38;;;;;;;;;;5039897;28;20103;-48
2022/04/15 07:18:00;;;;;;;6.97;4.35;;;;;;;;;;5045285;28;20385;-48
2022/04/15 07:20:26;;;;;;;7.68;4.57;;;;;;;;;;5039386;28;20024;-48
2022/04/15 07:22:56;;;;;;;6.93;4.03;;;;;;;;;;5037898;28;20029;-48
2022/04/15 07:25:22;;;;;;;6.13;4.50;;;;;;;;;;5040397;28;20017;-49
2022/04/15 07:27:48;;;;;;;10.52;5.28;;;;;;;;;;5052053;28;20469;-48
2022/04/15 07:30:14;;;;;;;10.80;5.18;;;;;;;;;;5052074;28;20078;-50
2022/04/15 07:32:40;;;;;;;11.20;5.40;;;;;;;;;;5038447;28;20030;-49
2022/04/15 07:35:06;;;;;;;11.50;4.88;;;;;;;;;;5051981;28;20029;-49
2022/04/15 07:37:32;;;;;;;7.45;4.93;;;;;;;;;;5051928;28;20035;-49
2022/04/15 07:39:58;;;;;;;8.63;4.80;;;;;;;;;;5051946;28;20025;-49
2022/04/15 07:42:24;;;;;;;9.32;5.35;;;;;;;;;;5051409;28;20735;-48
2022/04/15 07:44:50;;;;;;;9.73;5.82;;;;;;;;;;5046496;28;20500;-48
2022/04/15 07:47:16;;;;;;;10.27;5.18;;;;;;;;;;5032675;28;20034;-48
2022/04/15 07:49:42;;;;;;;8.13;4.82;;;;;;;;;;5046906;28;20053;-49
2022/04/15 07:52:08;;;;;;;8.82;4.93;;;;;;;;;;5051118;28;20032;-48
2022/04/15 07:54:34;;;;;;;7.03;5.20;;;;;;;;;;5055885;28;20048;-48
2022/04/15 07:57:01;;;;;;;8.45;4.53;;;;;;;;;;5040572;28;20363;-48
2022/04/15 07:59:27;;;;;;;8.93;5.00;;;;;;;;;;5044584;28;20041;-49
2022/04/15 08:01:53;;;;;;;8.60;4.57;;;;;;;;;;5039274;28;20104;-52
2022/04/15 08:04:19;;;;;;;11.45;4.93;;;;;;;;;;5043713;28;20454;-51
2022/04/15 08:06:45;;;;;;;9.25;4.68;;;;;;;;;;5039512;28;20029;-48
2022/04/15 08:09:39;;;;;;;7.00;4.78;;;;;;;;;;5033359;28;20033;-51
2022/04/15 08:12:08;;;;;;;8.82;5.03;;;;;;;;;;5036039;28;20033;-49
2022/04/15 08:14:35;;;;;;;9.65;5.43;;;;;;;;;;5043974;28;20037;-48
2022/04/15 08:17:01;;;;;;;8.07;5.28;;;;;;;;;;5039050;28;20032;-49
2022/04/15 08:53:36;;;;;;;10.75;6.32;;;;;;;;;;5048540;28;20044;-50
2022/04/15 08:56:02;;;;;;;14.10;6.30;;;;;;;;;;5053826;28;20051;-50
2022/04/15 08:58:28;;;;;;;10.65;6.72;;;;;;;;;;5058490;28;20565;-50
2022/04/15 09:00:54;;;;;;;10.13;5.30;;;;;;;;;;5062026;28;20021;-49
2022/04/15 09:03:20;;;;;;;11.00;6.25;;;;;;;;;;5062598;28;20021;-53
2022/04/15 09:05:50;;;;;;;16.30;6.45;;;;;;;;;;5059553;28;20045;-49
2022/04/15 09:08:16;;;;;;;9.13;5.90;;;;;;;;;;5059073;28;20044;-50
2022/04/15 09:10:42;;;;;;;11.20;6.35;;;;;;;;;;5057685;28;20044;-50
2022/04/15 09:13:18;;;;;;;15.68;7.25;;;;;;;;;;5058350;28;20033;-50
2022/04/15 09:15:44;;;;;;;13.95;6.70;;;;;;;;;;5482369;22;21027;-55
2022/04/15 09:18:10;;;;;;;13.98;6.22;;;;;;;;;;5059439;28;20040;-48
2022/04/15 09:20:36;;;;;;;9.63;6.47;;;;;;;;;;5071565;28;20094;-49
2022/04/15 09:23:12;;;;;;;12.63;6.45;;;;;;;;;;5058530;28;20039;-52
2022/04/15 09:25:41;;;;;;;13.65;7.30;;;;;;;;;;5070519;28;20119;-54
2022/04/15 09:28:07;;;;;;;10.27;6.65;;;;;;;;;;5073215;28;20032;-50
2022/04/15 09:30:38;;;;;;;14.93;6.05;;;;;;;;;;5073825;28;20032;-50
2022/04/15 09:33:04;;;;;;;14.35;6.97;;;;;;;;;;5072397;28;20424;-49
2022/04/15 09:35:30;;;;;;;10.65;5.88;;;;;;;;;;5071697;28;20020;-49
2022/04/15 09:41:00;;;;;;;12.80;6.55;;;;;;;;;;5062722;28;20039;-48
2022/04/15 09:43:26;;;;;;;13.55;7.43;;;;;;;;;;5073729;28;20737;-48
2022/04/15 09:45:52;;;;;;;12.40;6.43;;;;;;;;;;5070573;28;20058;-48
2022/04/15 09:48:18;;;;;;;10.45;6.35;;;;;;;;;;5034257;28;20044;-48
2022/04/15 09:50:44;;;;;;;11.55;6.20;;;;;;;;;;5026508;28;20047;-47
2022/04/15 09:53:21;;;;;;;9.73;5.90;;;;;;;;;;4961606;28;20073;-48
2022/04/15 09:55:51;;;;;;;10.77;6.25;;;;;;;;;;4896346;28;20715;-49
2022/04/15 09:58:17;;;;;;;9.75;6.40;;;;;;;;;;4631146;28;47105;-52
2022/04/15 10:00:47;;;;;;;10.18;5.95;;;;;;;;;;5066812;28;20386;-52
2022/04/15 10:03:15;;;;;;;12.15;6.75;;;;;;;;;;4703834;28;20035;-49
2022/04/15 10:06:06;;;;;;;12.20;6.15;;;;;;;;;;5054781;28;20030;-52
2022/04/15 10:08:33;;;;;;;9.85;6.65;;;;;;;;;;4846255;28;20032;-49
2022/04/15 10:14:03;;;;;;;11.93;6.03;;;;;;;;;;5061960;28;20424;-49
2022/04/15 10:16:38;;;;;;;10.27;6.07;;;;;;;;;;4410931;28;25727;-50
2022/04/15 10:19:04;;;;;;;10.00;5.88;;;;;;;;;;5065581;28;20077;-50
2022/04/15 10:21:40;;;;;;;10.63;5.68;;;;;;;;;;4697936;28;20784;-49
2022/04/15 10:24:09;;;;;;;10.80;5.35;;;;;;;;;;5091983;22;20399;-90
2022/04/15 10:26:45;;;;;;;11.18;5.78;;;;;;;;;;5034735;22;20048;-53
2022/04/15 10:29:11;;;;;;;8.75;4.68;;;;;;;;;;4544519;28;20033;-52
2022/04/15 10:31:38;;;;;;;7.60;5.03;;;;;;;;;;5030752;28;20032;-52
2022/04/15 10:36:43;;;;;;;7.93;4.80;;;;;;;;;;4972911;28;20037;-49
2022/04/15 10:39:11;;;;;;;7.80;4.88;;;;;;;;;;5020600;28;20104;-50
2022/04/15 10:41:43;;;;;;;8.30;4.45;;;;;;;;;;4979358;28;20497;-48
2022/04/15 10:44:13;;;;;;;8.18;4.82;;;;;;;;;;4760093;28;20109;-52
2022/04/15 10:46:58;;;;;;;8.23;4.40;;;;;;;;;;5004433;28;20108;-49
2022/04/15 10:49:30;;;;;;;7.75;5.20;;;;;;;;;;5026377;28;20029;-48
2022/04/15 10:52:17;;;;;;;8.90;4.97;;;;;;;;;;5016573;28;20539;-51
2022/04/15 10:54:48;;;;;;;6.63;4.53;;;;;;;;;;4799564;28;20103;-52
2022/04/15 10:57:14;;;;;;;7.85;4.47;;;;;;;;;;5013512;28;20077;-51
2022/04/15 11:02:37;;;;;;;6.97;4.70;;;;;;;;;;5020128;28;20036;-48
2022/04/15 16:15:14;;;;;;;11.98;5.78;;;;;;;;;;5387775;23;20104;-59
2022/04/15 17:20:26;;;;;;;13.80;5.47;;;;;;;;;;5805234;23;19927;-52
2022/04/15 17:22:53;;;;;;;15.07;6.47;;;;;;;;;;4915782;29;20092;-51
2022/04/15 17:33:06;;;;;;;15.52;6.60;;;;;;;;;;5443378;23;20394;-57
